sensor_id;sensor_type;location;lat;lon;timestamp;pressure;altitude;pressure_sealevel;temperature;humidity
62725;BME280;49026;52.600;4.694;2023-04-06T00:01:53;101806.91;;;3.52;65.58
62725;BME280;49026;52.600;4.694;2023-04-06T00:04:19;101812.97;;;3.54;64.47
62725;BME280;49026;52.600;4.694;2023-04-06T00:06:44;101799.16;;;3.57;59.72
62725;BME280;49026;52.600;4.694;2023-04-06T00:09:09;101809.53;;;3.58;60.65
62725;BME280;49026;52.600;4.694;2023-04-06T00:11:37;101794.81;;;3.60;57.74
62725;BME280;49026;52.600;4.694;2023-04-06T00:14:02;101793.09;;;3.62;61.80
62725;BME280;49026;52.600;4.694;2023-04-06T00:16:30;101786.19;;;3.64;62.83
62725;BME280;49026;52.600;4.694;2023-04-06T00:18:55;101787.91;;;3.65;60.78
62725;BME280;49026;52.600;4.694;2023-04-06T00:21:20;101780.13;;;3.68;59.95
62725;BME280;49026;52.600;4.694;2023-04-06T00:23:48;101781.88;;;3.73;61.46
62725;BME280;49026;52.600;4.694;2023-04-06T00:26:15;101779.28;;;3.76;59.32
62725;BME280;49026;52.600;4.694;2023-04-06T00:28:48;101779.28;;;3.79;60.24
62725;BME280;49026;52.600;4.694;2023-04-06T00:31:17;101773.25;;;3.81;58.11
62725;BME280;49026;52.600;4.694;2023-04-06T00:33:42;101774.97;;;3.84;57.39
62725;BME280;49026;52.600;4.694;2023-04-06T00:36:07;101768.06;;;3.86;56.95
62725;BME280;49026;52.600;4.694;2023-04-06T00:38:33;101764.56;;;3.87;56.24
62725;BME280;49026;52.600;4.694;2023-04-06T00:41:03;101770.63;;;3.89;54.65
62725;BME280;49026;52.600;4.694;2023-04-06T00:43:28;101768.03;;;3.89;54.45
62725;BME280;49026;52.600;4.694;2023-04-06T00:45:53;101762.84;;;3.90;53.85
62725;BME280;49026;52.600;4.694;2023-04-06T00:48:18;101757.66;;;3.94;53.78
62725;BME280;49026;52.600;4.694;2023-04-06T00:50:46;101760.25;;;3.95;53.67
62725;BME280;49026;52.600;4.694;2023-04-06T00:53:12;101754.22;;;3.98;54.07
62725;BME280;49026;52.600;4.694;2023-04-06T00:55:38;101746.41;;;3.99;54.19
62725;BME280;49026;52.600;4.694;2023-04-06T00:58:03;101743.81;;;4.04;53.67
62725;BME280;49026;52.600;4.694;2023-04-06T01:00:29;101751.63;;;4.08;54.86
62725;BME280;49026;52.600;4.694;2023-04-06T01:02:55;101749.03;;;4.13;54.17
62725;BME280;49026;52.600;4.694;2023-04-06T01:05:20;101749.03;;;4.16;57.60
62725;BME280;49026;52.600;4.694;2023-04-06T01:07:46;101742.09;;;4.21;56.19
62725;BME280;49026;52.600;4.694;2023-04-06T01:10:24;101729.09;;;4.24;55.46
62725;BME280;49026;52.600;4.694;2023-04-06T01:12:52;101729.06;;;4.29;55.11
62725;BME280;49026;52.600;4.694;2023-04-06T01:15:17;101729.09;;;4.34;54.96
62725;BME280;49026;52.600;4.694;2023-04-06T01:17:42;101718.69;;;4.35;54.70
62725;BME280;49026;52.600;4.694;2023-04-06T01:20:08;101714.34;;;4.37;55.80
62725;BME280;49026;52.600;4.694;2023-04-06T01:22:33;101717.81;;;4.39;55.57
62725;BME280;49026;52.600;4.694;2023-04-06T01:25:01;101715.19;;;4.42;55.12
62725;BME280;49026;52.600;4.694;2023-04-06T01:27:26;101707.38;;;4.44;53.87
62725;BME280;49026;52.600;4.694;2023-04-06T01:29:53;101704.78;;;4.45;53.38
62725;BME280;49026;52.600;4.694;2023-04-06T01:32:18;101703.03;;;4.48;54.98
62725;BME280;49026;52.600;4.694;2023-04-06T01:34:43;101703.94;;;4.50;57.71
62725;BME280;49026;52.600;4.694;2023-04-06T01:37:09;101702.19;;;4.52;59.04
62725;BME280;49026;52.600;4.694;2023-04-06T01:39:34;101697.84;;;4.54;58.64
62725;BME280;49026;52.600;4.694;2023-04-06T01:42:02;101696.97;;;4.55;56.14
62725;BME280;49026;52.600;4.694;2023-04-06T01:44:30;101696.97;;;4.55;57.05
62725;BME280;49026;52.600;4.694;2023-04-06T01:46:56;101684.81;;;4.54;56.63
62725;BME280;49026;52.600;4.694;2023-04-06T01:49:24;101686.56;;;4.50;56.62
62725;BME280;49026;52.600;4.694;2023-04-06T01:51:49;101690.91;;;4.50;54.66
62725;BME280;49026;52.600;4.694;2023-04-06T01:54:17;101677.00;;;4.48;54.14
62725;BME280;49026;52.600;4.694;2023-04-06T01:56:42;101685.72;;;4.47;53.54
62725;BME280;49026;52.600;4.694;2023-04-06T01:59:08;101683.97;;;4.45;54.45
62725;BME280;49026;52.600;4.694;2023-04-06T02:01:35;101689.16;;;4.44;54.05
62725;BME280;49026;52.600;4.694;2023-04-06T02:04:00;101674.44;;;4.41;55.45
62725;BME280;49026;52.600;4.694;2023-04-06T02:06:26;101674.44;;;4.37;56.93
62725;BME280;49026;52.600;4.694;2023-04-06T02:08:51;101674.44;;;4.32;58.32
62725;BME280;49026;52.600;4.694;2023-04-06T02:11:17;101667.53;;;4.31;56.29
62725;BME280;49026;52.600;4.694;2023-04-06T02:13:42;101662.31;;;4.30;55.28
62725;BME280;49026;52.600;4.694;2023-04-06T02:16:10;101657.97;;;4.30;57.37
62725;BME280;49026;52.600;4.694;2023-04-06T02:18:38;101657.13;;;4.30;56.78
62725;BME280;49026;52.600;4.694;2023-04-06T02:21:03;101654.50;;;4.30;57.04
62725;BME280;49026;52.600;4.694;2023-04-06T02:23:28;101653.63;;;4.29;57.30
62725;BME280;49026;52.600;4.694;2023-04-06T02:25:53;101645.81;;;4.29;60.17
62725;BME280;49026;52.600;4.694;2023-04-06T02:28:19;101648.41;;;4.31;62.75
62725;BME280;49026;52.600;4.694;2023-04-06T02:30:44;101645.81;;;4.32;62.16
62725;BME280;49026;52.600;4.694;2023-04-06T02:33:10;101646.66;;;4.34;61.09
62725;BME280;49026;52.600;4.694;2023-04-06T02:35:37;101638.88;;;4.34;58.88
62725;BME280;49026;52.600;4.694;2023-04-06T02:38:04;101633.66;;;4.37;58.28
62725;BME280;49026;52.600;4.694;2023-04-06T02:40:30;101625.84;;;4.40;58.35
62725;BME280;49026;52.600;4.694;2023-04-06T02:42:57;101627.59;;;4.43;56.71
62725;BME280;49026;52.600;4.694;2023-04-06T02:45:22;101630.16;;;4.48;57.33
62725;BME280;49026;52.600;4.694;2023-04-06T02:47:50;101624.97;;;4.51;57.70
62725;BME280;49026;52.600;4.694;2023-04-06T02:50:16;101627.56;;;4.54;57.79
62725;BME280;49026;52.600;4.694;2023-04-06T02:52:42;101620.59;;;4.57;57.50
62725;BME280;49026;52.600;4.694;2023-04-06T02:55:07;101616.25;;;4.61;59.47
62725;BME280;49026;52.600;4.694;2023-04-06T02:57:33;101606.72;;;4.66;59.92
62725;BME280;49026;52.600;4.694;2023-04-06T02:59:58;101615.38;;;4.73;57.55
62725;BME280;49026;52.600;4.694;2023-04-06T03:02:24;101604.06;;;4.75;56.75
62725;BME280;49026;52.600;4.694;2023-04-06T03:04:49;101604.91;;;4.79;58.04
62725;BME280;49026;52.600;4.694;2023-04-06T03:07:14;101606.66;;;4.83;57.88
62725;BME280;49026;52.600;4.694;2023-04-06T03:09:40;101601.44;;;4.83;59.14
62725;BME280;49026;52.600;4.694;2023-04-06T03:12:05;101597.94;;;4.84;58.89
62725;BME280;49026;52.600;4.694;2023-04-06T03:14:31;101595.34;;;4.86;58.41
62725;BME280;49026;52.600;4.694;2023-04-06T03:16:58;101597.94;;;4.86;57.86
62725;BME280;49026;52.600;4.694;2023-04-06T03:19:24;101591.88;;;4.83;59.91
62725;BME280;49026;52.600;4.694;2023-04-06T03:21:52;101594.50;;;4.82;60.29
62725;BME280;49026;52.600;4.694;2023-04-06T03:24:19;101587.53;;;4.82;59.66
62725;BME280;49026;52.600;4.694;2023-04-06T03:26:47;101583.22;;;4.81;58.30
62725;BME280;49026;52.600;4.694;2023-04-06T03:29:13;101583.22;;;4.81;58.23
62725;BME280;49026;52.600;4.694;2023-04-06T03:31:38;101583.22;;;4.80;59.73
62725;BME280;49026;52.600;4.694;2023-04-06T03:34:03;101575.41;;;4.80;58.75
62725;BME280;49026;52.600;4.694;2023-04-06T03:36:31;101576.25;;;4.80;59.03
62725;BME280;49026;52.600;4.694;2023-04-06T03:38:59;101572.81;;;4.81;59.52
62725;BME280;49026;52.600;4.694;2023-04-06T03:41:24;101571.91;;;4.82;59.59
62725;BME280;49026;52.600;4.694;2023-04-06T03:43:50;101573.66;;;4.83;59.89
62725;BME280;49026;52.600;4.694;2023-04-06T03:46:15;101571.91;;;4.82;59.94
62725;BME280;49026;52.600;4.694;2023-04-06T03:48:40;101572.81;;;4.81;61.13
62725;BME280;49026;52.600;4.694;2023-04-06T03:51:08;101570.19;;;4.83;61.23
62725;BME280;49026;52.600;4.694;2023-04-06T03:53:34;101564.09;;;4.84;59.27
62725;BME280;49026;52.600;4.694;2023-04-06T03:56:02;101565.84;;;4.87;59.04
62725;BME280;49026;52.600;4.694;2023-04-06T03:58:27;101564.09;;;4.86;60.65
62725;BME280;49026;52.600;4.694;2023-04-06T04:00:55;101565.84;;;4.83;59.28
62725;BME280;49026;52.600;4.694;2023-04-06T04:03:21;101558.88;;;4.82;58.77
62725;BME280;49026;52.600;4.694;2023-04-06T04:05:48;101557.19;;;4.81;60.54
62725;BME280;49026;52.600;4.694;2023-04-06T04:08:16;101554.56;;;4.83;59.08
62725;BME280;49026;52.600;4.694;2023-04-06T04:10:41;101553.69;;;4.86;57.60
62725;BME280;49026;52.600;4.694;2023-04-06T04:13:08;101550.19;;;4.90;57.80
62725;BME280;49026;52.600;4.694;2023-04-06T04:15:33;101547.53;;;4.96;56.84
62725;BME280;49026;52.600;4.694;2023-04-06T04:17:59;101544.91;;;5.02;55.95
62725;BME280;49026;52.600;4.694;2023-04-06T04:20:24;101546.63;;;5.06;56.31
62725;BME280;49026;52.600;4.694;2023-04-06T04:22:52;101540.53;;;5.09;56.05
62725;BME280;49026;52.600;4.694;2023-04-06T04:25:17;101551.78;;;5.12;55.39
62725;BME280;49026;52.600;4.694;2023-04-06T04:27:42;101544.81;;;5.14;55.91
62725;BME280;49026;52.600;4.694;2023-04-06T04:30:11;101545.69;;;5.16;55.35
62725;BME280;49026;52.600;4.694;2023-04-06T04:32:36;101543.09;;;5.18;56.24
62725;BME280;49026;52.600;4.694;2023-04-06T04:35:02;101548.28;;;5.19;55.14
62725;BME280;49026;52.600;4.694;2023-04-06T04:37:27;101545.69;;;5.19;54.49
62725;BME280;49026;52.600;4.694;2023-04-06T04:39:55;101544.81;;;5.17;54.95
62725;BME280;49026;52.600;4.694;2023-04-06T04:42:20;101536.13;;;5.18;54.46
62725;BME280;49026;52.600;4.694;2023-04-06T04:44:46;101537.88;;;5.16;55.04
62725;BME280;49026;52.600;4.694;2023-04-06T04:47:11;101532.69;;;5.15;56.07
62725;BME280;49026;52.600;4.694;2023-04-06T04:49:36;101535.28;;;5.15;56.24
62725;BME280;49026;52.600;4.694;2023-04-06T04:52:04;101536.13;;;5.15;55.42
62725;BME280;49026;52.600;4.694;2023-04-06T04:54:29;101536.13;;;5.17;54.67
62725;BME280;49026;52.600;4.694;2023-04-06T04:56:54;101541.34;;;5.18;55.65
62725;BME280;49026;52.600;4.694;2023-04-06T04:59:20;101537.88;;;5.19;54.68
62725;BME280;49026;52.600;4.694;2023-04-06T05:01:45;101536.97;;;5.22;54.86
62725;BME280;49026;52.600;4.694;2023-04-06T05:04:10;101536.09;;;5.23;54.37
62725;BME280;49026;52.600;4.694;2023-04-06T05:06:38;101533.50;;;5.25;54.16
62725;BME280;49026;52.600;4.694;2023-04-06T05:09:03;101540.41;;;5.26;54.70
62725;BME280;49026;52.600;4.694;2023-04-06T05:11:29;101529.13;;;5.24;55.67
62725;BME280;49026;52.600;4.694;2023-04-06T05:13:54;101536.97;;;5.24;55.79
62725;BME280;49026;52.600;4.694;2023-04-06T05:16:20;101534.34;;;5.24;55.57
62725;BME280;49026;52.600;4.694;2023-04-06T05:18:47;101529.16;;;5.22;55.50
62725;BME280;49026;52.600;4.694;2023-04-06T05:21:14;101523.94;;;5.22;55.96
62725;BME280;49026;52.600;4.694;2023-04-06T05:23:40;101523.06;;;5.23;55.11
62725;BME280;49026;52.600;4.694;2023-04-06T05:26:05;101523.06;;;5.23;54.52
62725;BME280;49026;52.600;4.694;2023-04-06T05:28:31;101531.75;;;5.22;56.53
62725;BME280;49026;52.600;4.694;2023-04-06T05:30:56;101530.91;;;5.22;56.07
62725;BME280;49026;52.600;4.694;2023-04-06T05:33:27;101527.41;;;5.23;56.64
62725;BME280;49026;52.600;4.694;2023-04-06T05:35:54;101530.00;;;5.24;55.88
62725;BME280;49026;52.600;4.694;2023-04-06T05:38:20;101535.19;;;5.26;57.04
62725;BME280;49026;52.600;4.694;2023-04-06T05:40:45;101526.53;;;5.27;58.86
62725;BME280;49026;52.600;4.694;2023-04-06T05:43:10;101527.38;;;5.26;60.91
62725;BME280;49026;52.600;4.694;2023-04-06T05:45:36;101523.06;;;5.26;57.54
62725;BME280;49026;52.600;4.694;2023-04-06T05:48:02;101526.50;;;5.30;57.36
62725;BME280;49026;52.600;4.694;2023-04-06T05:50:30;101529.06;;;5.34;56.70
62725;BME280;49026;52.600;4.694;2023-04-06T05:52:55;101515.13;;;5.42;55.84
62725;BME280;49026;52.600;4.694;2023-04-06T05:55:20;101519.38;;;5.52;55.55
62725;BME280;49026;52.600;4.694;2023-04-06T05:57:48;101522.78;;;5.62;56.43
62725;BME280;49026;52.600;4.694;2023-04-06T06:00:14;101518.31;;;5.73;57.59
62725;BME280;49026;52.600;4.694;2023-04-06T06:02:42;101522.56;;;5.83;57.47
62725;BME280;49026;52.600;4.694;2023-04-06T06:05:10;101522.44;;;5.96;56.84
62725;BME280;49026;52.600;4.694;2023-04-06T06:07:36;101520.63;;;6.07;56.36
62725;BME280;49026;52.600;4.694;2023-04-06T06:10:01;101526.63;;;6.15;56.76
62725;BME280;49026;52.600;4.694;2023-04-06T06:12:27;101521.31;;;6.21;56.91
62725;BME280;49026;52.600;4.694;2023-04-06T06:14:52;101523.00;;;6.28;55.98
62725;BME280;49026;52.600;4.694;2023-04-06T06:17:19;101529.06;;;6.32;55.97
62725;BME280;49026;52.600;4.694;2023-04-06T06:19:45;101528.19;;;6.32;55.91
62725;BME280;49026;52.600;4.694;2023-04-06T06:22:12;101521.22;;;6.34;56.23
62725;BME280;49026;52.600;4.694;2023-04-06T06:24:38;101521.19;;;6.37;56.47
62725;BME280;49026;52.600;4.694;2023-04-06T06:27:03;101528.13;;;6.36;56.15
62725;BME280;49026;52.600;4.694;2023-04-06T06:29:28;101522.91;;;6.36;56.17
62725;BME280;49026;52.600;4.694;2023-04-06T06:31:54;101514.25;;;6.31;57.14
62725;BME280;49026;52.600;4.694;2023-04-06T06:34:22;101520.41;;;6.27;56.10
62725;BME280;49026;52.600;4.694;2023-04-06T06:36:50;101523.03;;;6.25;55.96
62725;BME280;49026;52.600;4.694;2023-04-06T06:39:16;101523.03;;;6.25;56.17
62725;BME280;49026;52.600;4.694;2023-04-06T06:41:41;101520.44;;;6.24;57.52
62725;BME280;49026;52.600;4.694;2023-04-06T06:44:07;101515.22;;;6.25;57.58
62725;BME280;49026;52.600;4.694;2023-04-06T06:46:32;101528.25;;;6.25;57.11
62725;BME280;49026;52.600;4.694;2023-04-06T06:48:58;101517.81;;;6.25;56.86
62725;BME280;49026;52.600;4.694;2023-04-06T06:51:26;101521.31;;;6.24;58.04
62725;BME280;49026;52.600;4.694;2023-04-06T06:53:51;101514.28;;;6.29;56.37
62725;BME280;49026;52.600;4.694;2023-04-06T06:56:16;101518.59;;;6.34;57.74
62725;BME280;49026;52.600;4.694;2023-04-06T06:58:41;101505.50;;;6.38;56.71
62725;BME280;49026;52.600;4.694;2023-04-06T07:01:07;101507.19;;;6.41;57.26
62725;BME280;49026;52.600;4.694;2023-04-06T07:03:32;101514.13;;;6.45;57.81
62725;BME280;49026;52.600;4.694;2023-04-06T07:05:57;101507.97;;;6.47;57.33
62725;BME280;49026;52.600;4.694;2023-04-06T07:08:23;101496.53;;;6.56;56.22
62725;BME280;49026;52.600;4.694;2023-04-06T07:10:53;101498.25;;;6.60;56.92
62725;BME280;49026;52.600;4.694;2023-04-06T07:13:20;101497.28;;;6.66;56.19
62725;BME280;49026;52.600;4.694;2023-04-06T07:15:48;101496.38;;;6.72;56.40
62725;BME280;49026;52.600;4.694;2023-04-06T07:18:14;101499.78;;;6.77;57.23
62725;BME280;49026;52.600;4.694;2023-04-06T07:20:39;101491.94;;;6.77;57.46
62725;BME280;49026;52.600;4.694;2023-04-06T07:23:07;101493.56;;;6.84;57.14
62725;BME280;49026;52.600;4.694;2023-04-06T07:25:32;101492.56;;;6.94;55.78
62725;BME280;49026;52.600;4.694;2023-04-06T07:27:57;101492.41;;;7.05;56.29
62725;BME280;49026;52.600;4.694;2023-04-06T07:30:23;101482.72;;;7.12;57.70
62725;BME280;49026;52.600;4.694;2023-04-06T07:32:51;101486.13;;;7.17;56.90
62725;BME280;49026;52.600;4.694;2023-04-06T07:35:16;101490.38;;;7.24;57.20
62725;BME280;49026;52.600;4.694;2023-04-06T07:37:44;101486.75;;;7.31;56.62
62725;BME280;49026;52.600;4.694;2023-04-06T07:40:09;101485.72;;;7.41;56.66
62725;BME280;49026;52.600;4.694;2023-04-06T07:42:35;101484.63;;;7.53;56.20
62725;BME280;49026;52.600;4.694;2023-04-06T07:45:02;101488.91;;;7.60;56.22
62725;BME280;49026;52.600;4.694;2023-04-06T07:47:31;101482.63;;;7.69;55.73
62725;BME280;49026;52.600;4.694;2023-04-06T07:49:56;101484.13;;;7.83;55.53
62725;BME280;49026;52.600;4.694;2023-04-06T07:52:21;101488.28;;;7.94;56.16
62725;BME280;49026;52.600;4.694;2023-04-06T07:54:47;101488.16;;;8.01;56.47
62725;BME280;49026;52.600;4.694;2023-04-06T07:57:14;101488.84;;;8.10;55.82
62725;BME280;49026;52.600;4.694;2023-04-06T07:59:39;101483.44;;;8.20;56.77
62725;BME280;49026;52.600;4.694;2023-04-06T08:02:05;101480.59;;;8.30;56.30
62725;BME280;49026;52.600;4.694;2023-04-06T08:04:31;101474.16;;;8.47;55.99
62725;BME280;49026;52.600;4.694;2023-04-06T08:06:56;101477.28;;;8.66;55.69
62725;BME280;49026;52.600;4.694;2023-04-06T08:09:21;101478.72;;;8.79;55.46
62725;BME280;49026;52.600;4.694;2023-04-06T08:11:49;101481.94;;;8.92;56.21
62725;BME280;49026;52.600;4.694;2023-04-06T08:14:15;101478.28;;;8.98;55.81
62725;BME280;49026;52.600;4.694;2023-04-06T08:16:41;101479.09;;;9.01;56.50
62725;BME280;49026;52.600;4.694;2023-04-06T08:19:09;101471.19;;;9.03;56.04
62725;BME280;49026;52.600;4.694;2023-04-06T08:21:35;101464.81;;;9.13;56.15
62725;BME280;49026;52.600;4.694;2023-04-06T08:24:03;101470.66;;;9.24;55.64
62725;BME280;49026;52.600;4.694;2023-04-06T08:26:29;101466.94;;;9.33;56.67
62725;BME280;49026;52.600;4.694;2023-04-06T08:28:54;101465.75;;;9.46;56.46
62725;BME280;49026;52.600;4.694;2023-04-06T08:31:20;101470.06;;;9.49;56.14
62725;BME280;49026;52.600;4.694;2023-04-06T08:33:47;101477.00;;;9.50;56.43
62725;BME280;49026;52.600;4.694;2023-04-06T08:36:14;101474.47;;;9.47;56.63
62725;BME280;49026;52.600;4.694;2023-04-06T08:38:41;101472.91;;;9.40;56.76
62725;BME280;49026;52.600;4.694;2023-04-06T08:41:10;101468.66;;;9.36;56.29
62725;BME280;49026;52.600;4.694;2023-04-06T08:43:42;101471.38;;;9.31;57.26
62725;BME280;49026;52.600;4.694;2023-04-06T08:46:08;101468.72;;;9.33;56.61
62725;BME280;49026;52.600;4.694;2023-04-06T08:48:42;101466.16;;;9.30;56.93
62725;BME280;49026;52.600;4.694;2023-04-06T08:51:11;101464.41;;;9.30;56.23
62725;BME280;49026;52.600;4.694;2023-04-06T08:53:41;101470.66;;;9.24;57.09
62725;BME280;49026;52.600;4.694;2023-04-06T08:56:07;101475.16;;;9.19;56.45
62725;BME280;49026;52.600;4.694;2023-04-06T08:58:35;101468.94;;;9.23;57.90
62725;BME280;49026;52.600;4.694;2023-04-06T09:01:08;101465.28;;;9.31;56.63
62725;BME280;49026;52.600;4.694;2023-04-06T09:03:37;101475.63;;;9.35;56.08
62725;BME280;49026;52.600;4.694;2023-04-06T09:06:06;101468.88;;;9.26;58.88
62725;BME280;49026;52.600;4.694;2023-04-06T09:08:37;101467.44;;;9.13;58.29
62725;BME280;49026;52.600;4.694;2023-04-06T09:11:03;101462.50;;;9.01;61.78
62725;BME280;49026;52.600;4.694;2023-04-06T09:13:43;101473.09;;;8.96;59.30
62725;BME280;49026;52.600;4.694;2023-04-06T09:16:09;101460.81;;;8.98;61.03
62725;BME280;49026;52.600;4.694;2023-04-06T09:18:34;101461.69;;;8.99;61.82
62725;BME280;49026;52.600;4.694;2023-04-06T09:21:01;101467.75;;;9.01;60.29
62725;BME280;49026;52.600;4.694;2023-04-06T09:23:32;101466.66;;;9.09;58.74
62725;BME280;49026;52.600;4.694;2023-04-06T09:26:09;101466.44;;;9.19;59.08
62725;BME280;49026;52.600;4.694;2023-04-06T09:29:00;101461.00;;;9.26;59.99
62725;BME280;49026;52.600;4.694;2023-04-06T09:31:30;101466.91;;;9.35;60.63
62725;BME280;49026;52.600;4.694;2023-04-06T09:33:59;101461.59;;;9.38;60.71
62725;BME280;49026;52.600;4.694;2023-04-06T09:36:33;101461.66;;;9.35;58.94
62725;BME280;49026;52.600;4.694;2023-04-06T09:39:01;101458.16;;;9.36;60.36
62725;BME280;49026;52.600;4.694;2023-04-06T09:41:29;101458.88;;;9.42;62.41
62725;BME280;49026;52.600;4.694;2023-04-06T09:44:27;101458.22;;;9.33;65.12
62725;BME280;49026;52.600;4.694;2023-04-06T09:46:57;101456.53;;;9.30;63.35
62725;BME280;49026;52.600;4.694;2023-04-06T09:49:24;101458.47;;;9.22;64.38
62725;BME280;49026;52.600;4.694;2023-04-06T09:52:06;101452.56;;;9.14;66.31
62725;BME280;49026;52.600;4.694;2023-04-06T09:54:34;101452.88;;;9.01;66.63
62725;BME280;49026;52.600;4.694;2023-04-06T09:57:25;101451.28;;;8.94;68.09
62725;BME280;49026;52.600;4.694;2023-04-06T10:05:06;101451.13;;;9.00;67.68
62725;BME280;49026;52.600;4.694;2023-04-06T10:07:34;101448.31;;;9.09;65.95
62725;BME280;49026;52.600;4.694;2023-04-06T10:10:04;101446.41;;;9.16;65.75
62725;BME280;49026;52.600;4.694;2023-04-06T10:12:30;101442.00;;;9.17;70.17
62725;BME280;49026;52.600;4.694;2023-04-06T10:14:57;101450.81;;;9.14;67.44
62725;BME280;49026;52.600;4.694;2023-04-06T10:17:23;101442.84;;;9.19;67.08
62725;BME280;49026;52.600;4.694;2023-04-06T10:20:20;101436.81;;;9.14;67.98
62725;BME280;49026;52.600;4.694;2023-04-06T10:23:08;101441.34;;;9.07;70.57
62725;BME280;49026;52.600;4.694;2023-04-06T10:25:34;101433.69;;;8.99;76.59
62725;BME280;49026;52.600;4.694;2023-04-06T10:28:07;101441.47;;;9.04;69.94
62725;BME280;49026;52.600;4.694;2023-04-06T10:30:33;101436.97;;;9.09;74.35
62725;BME280;49026;52.600;4.694;2023-04-06T10:33:12;101444.75;;;9.12;76.89
62725;BME280;49026;52.600;4.694;2023-04-06T10:35:38;101430.88;;;9.07;73.41
62725;BME280;49026;52.600;4.694;2023-04-06T10:38:04;101433.56;;;9.05;74.70
62725;BME280;49026;52.600;4.694;2023-04-06T10:40:30;101431.69;;;9.11;71.32
62725;BME280;49026;52.600;4.694;2023-04-06T10:43:07;101434.31;;;9.11;73.23
62725;BME280;49026;52.600;4.694;2023-04-06T10:45:35;101425.50;;;9.13;72.94
62725;BME280;49026;52.600;4.694;2023-04-06T10:48:12;101418.53;;;9.12;71.94
62725;BME280;49026;52.600;4.694;2023-04-06T10:50:39;101394.97;;;9.11;72.27
62725;BME280;49026;52.600;4.694;2023-04-06T10:53:07;101419.69;;;9.00;74.11
62725;BME280;49026;52.600;4.694;2023-04-06T10:55:33;101406.72;;;8.96;72.19
62725;BME280;49026;52.600;4.694;2023-04-06T10:57:59;101406.91;;;8.86;74.63
62725;BME280;49026;52.600;4.694;2023-04-06T11:00:25;101410.34;;;8.88;75.27
62725;BME280;49026;52.600;4.694;2023-04-06T11:02:50;101397.28;;;8.87;75.64
62725;BME280;49026;52.600;4.694;2023-04-06T11:05:15;101407.03;;;8.80;76.70
62725;BME280;49026;52.600;4.694;2023-04-06T11:07:41;101410.53;;;8.82;75.01
62725;BME280;49026;52.600;4.694;2023-04-06T11:10:08;101401.78;;;8.82;74.09
62725;BME280;49026;52.600;4.694;2023-04-06T11:12:34;101393.06;;;8.81;76.25
62725;BME280;49026;52.600;4.694;2023-04-06T11:15:03;101398.38;;;8.78;74.90
62725;BME280;49026;52.600;4.694;2023-04-06T11:17:35;101388.00;;;8.74;77.04
62725;BME280;49026;52.600;4.694;2023-04-06T11:20:01;101392.38;;;8.73;81.34
62725;BME280;49026;52.600;4.694;2023-04-06T11:22:27;101381.09;;;8.71;80.87
62725;BME280;49026;52.600;4.694;2023-04-06T11:25:04;101388.19;;;8.66;79.46
62725;BME280;49026;52.600;4.694;2023-04-06T11:27:29;101380.38;;;8.64;77.11
62725;BME280;49026;52.600;4.694;2023-04-06T11:29:57;101371.47;;;8.70;79.18
62725;BME280;49026;52.600;4.694;2023-04-06T11:32:24;101368.94;;;8.67;79.53
62725;BME280;49026;52.600;4.694;2023-04-06T11:34:50;101379.22;;;8.76;80.98
62725;BME280;49026;52.600;4.694;2023-04-06T11:37:15;101386.25;;;8.74;82.31
62725;BME280;49026;52.600;4.694;2023-04-06T11:39:47;101365.50;;;8.65;79.85
62725;BME280;49026;52.600;4.694;2023-04-06T11:42:21;101374.44;;;8.56;83.97
62725;BME280;49026;52.600;4.694;2023-04-06T11:44:49;101375.56;;;8.46;79.88
62725;BME280;49026;52.600;4.694;2023-04-06T11:47:15;101368.75;;;8.37;82.92
62725;BME280;49026;52.600;4.694;2023-04-06T11:49:42;101361.94;;;8.28;80.85
62725;BME280;49026;52.600;4.694;2023-04-06T11:52:26;101365.56;;;8.23;83.55
62725;BME280;49026;52.600;4.694;2023-04-06T11:54:53;101364.66;;;8.24;85.47
62725;BME280;49026;52.600;4.694;2023-04-06T11:57:20;101365.63;;;8.20;85.20
62725;BME280;49026;52.600;4.694;2023-04-06T11:59:46;101355.97;;;8.22;85.64
62725;BME280;49026;52.600;4.694;2023-04-06T12:02:11;101357.63;;;8.26;84.20
62725;BME280;49026;52.600;4.694;2023-04-06T12:04:37;101355.91;;;8.25;85.27
62725;BME280;49026;52.600;4.694;2023-04-06T12:07:03;101361.13;;;8.25;82.62
62725;BME280;49026;52.600;4.694;2023-04-06T12:09:29;101354.09;;;8.27;82.73
62725;BME280;49026;52.600;4.694;2023-04-06T12:11:55;101346.44;;;8.19;87.74
62725;BME280;49026;52.600;4.694;2023-04-06T12:14:23;101344.78;;;8.13;87.47
62725;BME280;49026;52.600;4.694;2023-04-06T12:16:48;101352.84;;;8.06;86.09
62725;BME280;49026;52.600;4.694;2023-04-06T12:19:14;101353.69;;;8.06;87.18
62725;BME280;49026;52.600;4.694;2023-04-06T12:21:42;101349.38;;;8.05;86.49
62725;BME280;49026;52.600;4.694;2023-04-06T12:24:07;101341.56;;;8.02;86.43
62725;BME280;49026;52.600;4.694;2023-04-06T12:26:33;101329.34;;;8.03;88.15
62725;BME280;49026;52.600;4.694;2023-04-06T12:28:59;101339.84;;;8.01;88.61
62725;BME280;49026;52.600;4.694;2023-04-06T12:31:37;101335.44;;;8.03;89.01
62725;BME280;49026;52.600;4.694;2023-04-06T12:34:06;101344.00;;;8.10;88.38
62725;BME280;49026;52.600;4.694;2023-04-06T12:36:34;101344.84;;;8.12;88.79
62725;BME280;49026;52.600;4.694;2023-04-06T12:39:00;101341.38;;;8.10;86.27
62725;BME280;49026;52.600;4.694;2023-04-06T12:41:27;101343.19;;;8.08;86.41
62725;BME280;49026;52.600;4.694;2023-04-06T12:43:52;101335.31;;;8.09;88.75
62725;BME280;49026;52.600;4.694;2023-04-06T12:46:18;101342.38;;;8.06;86.74
62725;BME280;49026;52.600;4.694;2023-04-06T12:48:43;101337.28;;;7.98;86.22
62725;BME280;49026;52.600;4.694;2023-04-06T12:51:08;101334.75;;;7.93;88.56
62725;BME280;49026;52.600;4.694;2023-04-06T12:53:34;101339.25;;;7.87;88.94
62725;BME280;49026;52.600;4.694;2023-04-06T12:56:00;101329.13;;;7.71;90.26
62725;BME280;49026;52.600;4.694;2023-04-06T12:58:26;101324.09;;;7.62;88.34
62725;BME280;49026;52.600;4.694;2023-04-06T13:00:52;101326.78;;;7.57;90.13
62725;BME280;49026;52.600;4.694;2023-04-06T13:03:20;101326.88;;;7.53;90.95
62725;BME280;49026;52.600;4.694;2023-04-06T13:05:46;101326.88;;;7.53;90.13